PWSweather.com
Personal Weather Stations
Station Observations
60DEGNUK
Firth, MossbankGB ZE2 9TF

FirthMossbankGB ZE2 9TF

Lat: 60.448922, Lon: -1.19346

Elevation: 60

Station Type: Watson

Latest ConditionsUpdated 4:20:00 AM GMT Friday, Dec 14, 2018
Currently Today's Max Today's Min Today's Average
Temperature 43.7°F6.5°C 45.1°F7.3°C 43.5°F6.4°C 44.5°F6.9°C
Dew Point 37.3°F2.9°C 37.7°F3.2°C 35.3°F1.8°C 36.5°F2.5°C
Winds 15.7 mph SW25.3 kmh SW 18.7 mph -30.1 kmh - - 15.1 mph 24.3 kmh
Wind Gusts 25.9 mph41.7 kmh 26.6 mph42.8 kmh - -
Humidity 78% 78% 70% 73%
Pressure 30.39 in1029.1 mb 30.40 in1029.5 mb 30.38 in1028.8 mb -
Hour Temp Dew Point Humidity Winds Wind Gusts Pressure Precip Precip Rate Daily Precip Total
04:20 AM 43.7°F6.5°C 37.3°F2.9°C 78% 15.7 mph SW25.3 kmh SW 25.9 mph41.7 kmh 30.39 in1029.1 mb 0.00 in0.0 mm 0.00 in0.0 mm 0.00 in0.0 mm
04:15 AM 43.5°F6.4°C 36.8°F2.7°C 77% 15.8 mph SW25.4 kmh SW 22.8 mph36.7 kmh 30.40 in1029.5 mb 0.00 in0.0 mm 0.00 in0.0 mm 0.00 in0.0 mm
04:10 AM 43.5°F6.4°C 36.8°F2.7°C 77% 15.8 mph S25.4 kmh S 23.5 mph37.8 kmh 30.39 in1029.1 mb 0.00 in0.0 mm 0.00 in0.0 mm 0.00 in0.0 mm
04:05 AM 43.9°F6.6°C 37.1°F2.8°C 77% 15.7 mph S25.3 kmh S 23.5 mph37.8 kmh 30.39 in1029.1 mb 0.00 in0.0 mm 0.00 in0.0 mm 0.00 in0.0 mm
04:00 AM 43.9°F6.6°C 37.5°F3.1°C 78% 15.2 mph S24.5 kmh S 21.3 mph34.3 kmh 30.40 in1029.5 mb 0.00 in0.0 mm 0.00 in0.0 mm 0.00 in0.0 mm
03:55 AM 43.5°F6.4°C 36.8°F2.7°C 77% 15.5 mph S24.9 kmh S 22.1 mph35.6 kmh 30.39 in1029.1 mb 0.00 in0.0 mm 0.00 in0.0 mm 0.00 in0.0 mm
03:50 AM 43.5°F6.4°C 36.8°F2.7°C 77% 15.4 mph S24.8 kmh S 22.1 mph35.6 kmh 30.40 in1029.5 mb 0.00 in0.0 mm 0.00 in0.0 mm 0.00 in0.0 mm
03:45 AM 43.5°F6.4°C 36.8°F2.7°C 77% 15.7 mph SSW25.3 kmh SSW 25.9 mph41.7 kmh 30.39 in1029.1 mb 0.00 in0.0 mm 0.00 in0.0 mm 0.00 in0.0 mm
03:40 AM 43.5°F6.4°C 36.8°F2.7°C 77% 18.1 mph SSW29.1 kmh SSW 26.6 mph42.8 kmh 30.40 in1029.5 mb 0.00 in0.0 mm 0.00 in0.0 mm 0.00 in0.0 mm
03:35 AM 43.9°F6.6°C 36.8°F2.7°C 76% 18.7 mph S30.1 kmh S 26.6 mph42.8 kmh 30.40 in1029.5 mb 0.00 in0.0 mm 0.00 in0.0 mm 0.00 in0.0 mm
03:30 AM 44.2°F6.8°C 36.8°F2.7°C 75% 17.3 mph S27.8 kmh S 25.9 mph41.7 kmh 30.40 in1029.5 mb 0.00 in0.0 mm 0.00 in0.0 mm 0.00 in0.0 mm
03:25 AM 44.2°F6.8°C 36.8°F2.7°C 75% 16.6 mph S26.7 kmh S 25.1 mph40.4 kmh 30.39 in1029.1 mb 0.00 in0.0 mm 0.00 in0.0 mm 0.00 in0.0 mm
03:20 AM 44.4°F6.9°C 37.0°F2.8°C 75% 16.0 mph S25.7 kmh S 24.4 mph39.3 kmh 30.39 in1029.1 mb 0.00 in0.0 mm 0.00 in0.0 mm 0.00 in0.0 mm
03:15 AM 44.8°F7.1°C 37.7°F3.2°C 76% 14.7 mph S23.7 kmh S 24.4 mph39.3 kmh 30.39 in1029.1 mb 0.00 in0.0 mm 0.00 in0.0 mm 0.00 in0.0 mm
03:10 AM 44.8°F7.1°C 37.7°F3.2°C 76% 13.6 mph SSW21.9 kmh SSW 20.6 mph33.2 kmh 30.39 in1029.1 mb 0.00 in0.0 mm 0.00 in0.0 mm 0.00 in0.0 mm
03:05 AM 44.8°F7.1°C 37.7°F3.2°C 76% 14.4 mph SSW23.2 kmh SSW 20.6 mph33.2 kmh 30.39 in1029.1 mb 0.00 in0.0 mm 0.00 in0.0 mm 0.00 in0.0 mm
03:00 AM 44.6°F7.0°C 37.2°F2.9°C 75% 15.1 mph SSW24.3 kmh SSW 20.6 mph33.2 kmh 30.39 in1029.1 mb 0.00 in0.0 mm 0.00 in0.0 mm 0.00 in0.0 mm
02:55 AM 44.6°F7.0°C 37.2°F2.9°C 75% 15.0 mph S24.1 kmh S 23.5 mph37.8 kmh 30.39 in1029.1 mb 0.00 in0.0 mm 0.00 in0.0 mm 0.00 in0.0 mm
02:50 AM 44.6°F7.0°C 37.5°F3.1°C 76% 15.0 mph S24.1 kmh S 23.5 mph37.8 kmh 30.40 in1029.5 mb 0.00 in0.0 mm 0.00 in0.0 mm 0.00 in0.0 mm
02:45 AM 44.6°F7.0°C 37.5°F3.1°C 76% 15.6 mph S25.1 kmh S 24.4 mph39.3 kmh 30.39 in1029.1 mb 0.00 in0.0 mm 0.00 in0.0 mm 0.00 in0.0 mm
02:40 AM 44.8°F7.1°C 37.7°F3.2°C 76% 14.7 mph S23.7 kmh S 24.4 mph39.3 kmh 30.39 in1029.1 mb 0.00 in0.0 mm 0.00 in0.0 mm 0.00 in0.0 mm
02:35 AM 44.6°F7.0°C 37.2°F2.9°C 75% 13.5 mph SSW21.7 kmh SSW 20.6 mph33.2 kmh 30.39 in1029.1 mb 0.00 in0.0 mm 0.00 in0.0 mm 0.00 in0.0 mm
02:30 AM 44.8°F7.1°C 37.0°F2.8°C 74% 15.1 mph SSW24.3 kmh SSW 22.1 mph35.6 kmh 30.39 in1029.1 mb 0.00 in0.0 mm 0.00 in0.0 mm 0.00 in0.0 mm
02:25 AM 45.0°F7.2°C 36.8°F2.7°C 73% 17.4 mph SSW28.0 kmh SSW 26.6 mph42.8 kmh 30.39 in1029.1 mb 0.00 in0.0 mm 0.00 in0.0 mm 0.00 in0.0 mm
02:20 AM 45.1°F7.3°C 37.4°F3.0°C 74% 16.3 mph SSW26.2 kmh SSW 26.6 mph42.8 kmh 30.39 in1029.1 mb 0.00 in0.0 mm 0.00 in0.0 mm 0.00 in0.0 mm
02:15 AM 45.0°F7.2°C 37.2°F2.9°C 74% 14.5 mph SSW23.3 kmh SSW 22.1 mph35.6 kmh 30.39 in1029.1 mb 0.00 in0.0 mm 0.00 in0.0 mm 0.00 in0.0 mm
02:10 AM 44.8°F7.1°C 36.3°F2.4°C 72% 14.5 mph S23.3 kmh S 22.1 mph35.6 kmh 30.39 in1029.1 mb 0.00 in0.0 mm 0.00 in0.0 mm 0.00 in0.0 mm
02:05 AM 44.8°F7.1°C 35.6°F2.0°C 70% 14.9 mph SSW24.0 kmh SSW 23.5 mph37.8 kmh 30.39 in1029.1 mb 0.00 in0.0 mm 0.00 in0.0 mm 0.00 in0.0 mm
02:00 AM 44.8°F7.1°C 35.6°F2.0°C 70% 14.7 mph SSW23.7 kmh SSW 23.5 mph37.8 kmh 30.39 in1029.1 mb 0.00 in0.0 mm 0.00 in0.0 mm 0.00 in0.0 mm
01:55 AM 44.6°F7.0°C 35.4°F1.9°C 70% 13.2 mph SSW21.2 kmh SSW 22.8 mph36.7 kmh 30.39 in1029.1 mb 0.00 in0.0 mm 0.00 in0.0 mm 0.00 in0.0 mm
01:50 AM 44.4°F6.9°C 35.3°F1.8°C 70% 11.8 mph S19.0 kmh S 21.3 mph34.3 kmh 30.39 in1029.1 mb 0.00 in0.0 mm 0.00 in0.0 mm 0.00 in0.0 mm
01:45 AM 44.6°F7.0°C 35.8°F2.1°C 71% 11.8 mph SSW19.0 kmh SSW 25.1 mph40.4 kmh 30.39 in1029.1 mb 0.00 in0.0 mm 0.00 in0.0 mm 0.00 in0.0 mm
01:40 AM 44.8°F7.1°C 35.6°F2.0°C 70% 14.6 mph S23.5 kmh S 25.1 mph40.4 kmh 30.39 in1029.1 mb 0.00 in0.0 mm 0.00 in0.0 mm 0.00 in0.0 mm
01:35 AM 45.0°F7.2°C 35.8°F2.1°C 70% 17.1 mph S27.5 kmh S 25.1 mph40.4 kmh 30.39 in1029.1 mb 0.00 in0.0 mm 0.00 in0.0 mm 0.00 in0.0 mm
01:30 AM 45.1°F7.3°C 35.9°F2.2°C 70% 18.1 mph SSW29.1 kmh SSW 26.6 mph42.8 kmh 30.39 in1029.1 mb 0.00 in0.0 mm 0.00 in0.0 mm 0.00 in0.0 mm
01:25 AM 45.1°F7.3°C 36.3°F2.4°C 71% 17.0 mph SSW27.4 kmh SSW 26.6 mph42.8 kmh 30.39 in1029.1 mb 0.00 in0.0 mm 0.00 in0.0 mm 0.00 in0.0 mm
01:20 AM 45.0°F7.2°C 36.1°F2.3°C 71% 14.2 mph SSW22.9 kmh SSW 25.1 mph40.4 kmh 30.38 in1028.8 mb 0.00 in0.0 mm 0.00 in0.0 mm 0.00 in0.0 mm
01:15 AM 44.4°F6.9°C 35.6°F2.0°C 71% 12.8 mph SSW20.6 kmh SSW 19.7 mph31.7 kmh 30.39 in1029.1 mb 0.00 in0.0 mm 0.00 in0.0 mm 0.00 in0.0 mm
01:10 AM 44.4°F6.9°C 35.3°F1.8°C 70% 13.9 mph SSW22.4 kmh SSW 22.8 mph36.7 kmh 30.38 in1028.8 mb 0.00 in0.0 mm 0.00 in0.0 mm 0.00 in0.0 mm
01:05 AM 44.6°F7.0°C 35.4°F1.9°C 70% 14.9 mph SSW24.0 kmh SSW 22.8 mph36.7 kmh 30.38 in1028.8 mb 0.00 in0.0 mm 0.00 in0.0 mm 0.00 in0.0 mm
01:00 AM 44.6°F7.0°C 35.4°F1.9°C 70% 14.8 mph S23.8 kmh S 22.1 mph35.6 kmh 30.38 in1028.8 mb 0.00 in0.0 mm 0.00 in0.0 mm 0.00 in0.0 mm
12:55 AM 44.8°F7.1°C 36.0°F2.2°C 71% 14.2 mph SSW22.9 kmh SSW 20.6 mph33.2 kmh 30.39 in1029.1 mb 0.00 in0.0 mm 0.00 in0.0 mm 0.00 in0.0 mm
12:50 AM 44.8°F7.1°C 36.0°F2.2°C 71% 13.3 mph SW21.4 kmh SW 19.7 mph31.7 kmh 30.39 in1029.1 mb 0.00 in0.0 mm 0.00 in0.0 mm 0.00 in0.0 mm
12:45 AM 45.0°F7.2°C 36.5°F2.5°C 72% 13.8 mph SW22.2 kmh SW 25.1 mph40.4 kmh 30.40 in1029.5 mb 0.00 in0.0 mm 0.00 in0.0 mm 0.00 in0.0 mm
12:40 AM 45.0°F7.2°C 36.5°F2.5°C 72% 14.6 mph SW23.5 kmh SW 25.9 mph41.7 kmh 30.40 in1029.5 mb 0.00 in0.0 mm 0.00 in0.0 mm 0.00 in0.0 mm
12:35 AM 44.8°F7.1°C 36.3°F2.4°C 72% 13.9 mph SW22.4 kmh SW 25.9 mph41.7 kmh 30.40 in1029.5 mb 0.00 in0.0 mm 0.00 in0.0 mm 0.00 in0.0 mm
12:30 AM 44.8°F7.1°C 36.3°F2.4°C 72% 13.6 mph SSW21.9 kmh SSW 20.6 mph33.2 kmh 30.40 in1029.5 mb 0.00 in0.0 mm 0.00 in0.0 mm 0.00 in0.0 mm
12:25 AM 44.8°F7.1°C 36.3°F2.4°C 72% 15.1 mph SW24.3 kmh SW 23.5 mph37.8 kmh 30.40 in1029.5 mb 0.00 in0.0 mm 0.00 in0.0 mm 0.00 in0.0 mm
12:20 AM 45.0°F7.2°C 36.5°F2.5°C 72% 16.5 mph SSW26.6 kmh SSW 25.9 mph41.7 kmh 30.40 in1029.5 mb 0.00 in0.0 mm 0.00 in0.0 mm 0.00 in0.0 mm
12:15 AM 45.1°F7.3°C 36.7°F2.6°C 72% 14.6 mph SSW23.5 kmh SSW 25.9 mph41.7 kmh 30.39 in1029.1 mb 0.00 in0.0 mm 0.00 in0.0 mm 0.00 in0.0 mm
12:10 AM 44.8°F7.1°C 35.6°F2.0°C 70% 13.4 mph SSW21.6 kmh SSW 20.6 mph33.2 kmh 30.39 in1029.1 mb 0.00 in0.0 mm 0.00 in0.0 mm 0.00 in0.0 mm
12:05 AM 44.8°F7.1°C 35.6°F2.0°C 70% 15.1 mph SSW24.3 kmh SSW 21.3 mph34.3 kmh 30.39 in1029.1 mb 0.00 in0.0 mm 0.00 in0.0 mm 0.00 in0.0 mm
12:00 AM 45.0°F7.2°C 35.8°F2.1°C 70% 16.0 mph SSW25.7 kmh SSW 22.8 mph36.7 kmh 30.39 in1029.1 mb 0.00 in0.0 mm 0.00 in0.0 mm 0.00 in0.0 mm